Time;durP1;ratioP1;P1;durP2;ratioP2;P2;SDS_P1;SDS_P2;PMS_P1;PMS_P2;Temp;Humidity;BMP_temperature;BMP_pressure;BME280_temperature;BME280_humidity;BME280_pressure;Samples;Min_cycle;Max_cycle;Signal;HPM_P1;HPM_P2
2022/03/28 00:00:25;;;;;;;;;;;;;;;16.52;47.12;102944.50;6285816;22;19911;-77
2022/03/28 00:02:51;;;;;;;;;;;;;;;16.51;47.05;102941.03;6282497;22;19907;-77
2022/03/28 00:05:16;;;;;;;;;;;;;;;16.56;46.99;102943.75;6255985;22;20002;-77
2022/03/28 00:07:42;;;;;;;;;;;;;;;16.51;47.08;102942.75;6256960;22;19919;-77
2022/03/28 00:10:08;;;;;;;;;;;;;;;16.48;47.04;102930.50;6282822;22;19918;-77
2022/03/28 00:12:34;;;;;;;;;;;;;;;16.48;46.96;102927.91;6282007;22;20320;-77
2022/03/28 00:14:59;;;;;;;;;;;;;;;16.43;47.17;102921.72;6283273;22;19907;-77
2022/03/28 00:17:24;;;;;;;;;;;;;;;16.47;46.96;102923.56;6283383;22;19908;-77
2022/03/28 00:19:50;;;;;;;;;;;;;;;16.44;46.90;102915.72;6281558;22;19997;-77
2022/03/28 00:22:15;;;;;;;;;;;;;;;16.38;47.19;102918.13;6280322;22;19919;-77
2022/03/28 00:24:40;;;;;;;;;;;;;;;16.45;46.75;102909.66;6280361;22;19911;-77
2022/03/28 00:27:05;;;;;;;;;;;;;;;16.41;47.17;102898.28;6280984;22;19954;-77
2022/03/28 00:29:31;;;;;;;;;;;;;;;16.45;46.96;102896.66;6283544;22;19941;-77
2022/03/28 00:31:56;;;;;;;;;;;;;;;16.42;46.95;102896.59;6281967;22;20312;-77
2022/03/28 00:34:23;;;;;;;;;;;;;;;16.34;46.91;102895.47;6281943;22;19907;-77
2022/03/28 00:36:51;;;;;;;;;;;;;;;16.34;46.97;102879.91;6283598;22;19915;-77
2022/03/28 00:39:20;;;;;;;;;;;;;;;16.35;46.99;102882.53;6258663;22;19944;-77
2022/03/28 00:41:46;;;;;;;;;;;;;;;16.32;46.96;102879.84;6257810;22;19907;-77
2022/03/28 00:44:12;;;;;;;;;;;;;;;16.25;47.28;102881.38;6283561;22;20221;-77
2022/03/28 00:46:37;;;;;;;;;;;;;;;16.34;47.06;102872.97;6283548;22;19907;-77
2022/03/28 00:49:03;;;;;;;;;;;;;;;16.33;47.24;102875.50;6284536;22;19922;-77
2022/03/28 00:51:28;;;;;;;;;;;;;;;16.33;47.25;102872.91;6283800;22;19973;-77
2022/03/28 00:53:53;;;;;;;;;;;;;;;16.32;47.23;102874.66;6281650;22;19915;-77
2022/03/28 00:56:19;;;;;;;;;;;;;;;16.28;47.44;102879.72;6281908;22;19912;-77
2022/03/28 00:58:44;;;;;;;;;;;;;;;16.30;47.13;102883.25;6282418;22;19907;-76
2022/03/28 01:01:10;;;;;;;;;;;;;;;16.24;47.60;102877.03;6284099;22;19929;-77
2022/03/28 01:03:36;;;;;;;;;;;;;;;16.28;47.24;102870.19;6283242;22;20268;-76
2022/03/28 01:06:02;;;;;;;;;;;;;;;16.24;47.44;102869.25;6280704;22;19948;-77
2022/03/28 01:08:27;;;;;;;;;;;;;;;16.26;47.43;102869.28;6281899;22;20339;-77
2022/03/28 01:10:54;;;;;;;;;;;;;;;16.25;47.48;102864.94;6282021;22;19915;-77
2022/03/28 01:13:19;;;;;;;;;;;;;;;16.21;47.62;102858.75;6282678;22;19908;-77
2022/03/28 01:15:44;;;;;;;;;;;;;;;16.27;47.57;102849.38;6281504;22;19907;-77
2022/03/28 01:18:11;;;;;;;;;;;;;;;16.29;47.52;102851.19;6280149;22;19938;-77
2022/03/28 01:20:38;;;;;;;;;;;;;;;16.25;47.67;102846.75;6281041;22;19911;-77
2022/03/28 01:23:04;;;;;;;;;;;;;;;16.25;47.74;102845.00;6282150;22;20312;-77
2022/03/28 01:25:29;;;;;;;;;;;;;;;16.28;47.54;102845.94;6282053;22;19930;-77
2022/03/28 01:27:55;;;;;;;;;;;;;;;16.18;47.89;102843.09;6283453;22;20219;-77
2022/03/28 01:30:20;;;;;;;;;;;;;;;16.23;47.39;102835.41;6254140;22;19915;-77
2022/03/28 01:32:46;;;;;;;;;;;;;;;16.17;47.59;102827.44;6280769;22;19911;-77
2022/03/28 01:35:12;;;;;;;;;;;;;;;16.20;47.73;102828.44;6279645;22;19918;-77
2022/03/28 01:37:37;;;;;;;;;;;;;;;16.18;47.88;102826.63;6277100;22;20320;-77
2022/03/28 01:40:04;;;;;;;;;;;;;;;16.17;47.93;102830.94;6277053;22;19998;-77
2022/03/28 01:42:29;;;;;;;;;;;;;;;16.17;47.52;102823.13;6253134;22;19911;-77
2022/03/28 01:44:55;;;;;;;;;;;;;;;16.24;47.54;102824.19;6278460;22;19989;-77
2022/03/28 01:47:20;;;;;;;;;;;;;;;16.17;47.95;102828.31;6278823;22;19916;-77
2022/03/28 01:49:45;;;;;;;;;;;;;;;16.19;47.84;102825.78;6278612;22;20339;-77
2022/03/28 01:52:10;;;;;;;;;;;;;;;16.17;47.88;102822.25;6279698;22;19912;-77
2022/03/28 01:54:36;;;;;;;;;;;;;;;16.18;47.66;102819.72;6280697;22;19918;-76
2022/03/28 01:57:01;;;;;;;;;;;;;;;16.17;47.73;102825.72;6279498;22;20331;-77
2022/03/28 01:59:26;;;;;;;;;;;;;;;16.14;47.77;102819.59;6280402;22;19941;-77
2022/03/28 02:01:51;;;;;;;;;;;;;;;16.15;48.00;102813.53;6282169;22;19986;-76
2022/03/28 02:04:17;;;;;;;;;;;;;;;16.12;47.99;102816.94;6280791;22;19918;-76
2022/03/28 02:06:42;;;;;;;;;;;;;;;16.16;47.97;102808.41;6281170;22;19920;-77
2022/03/28 02:09:07;;;;;;;;;;;;;;;16.17;47.81;102806.69;6283886;22;19915;-76
2022/03/28 02:11:34;;;;;;;;;;;;;;;16.17;47.85;102807.53;6283928;22;19938;-77
2022/03/28 02:13:59;;;;;;;;;;;;;;;16.14;47.94;102804.00;6283759;22;19911;-77
2022/03/28 02:16:25;;;;;;;;;;;;;;;16.17;47.60;102802.34;6282098;22;19939;-77
2022/03/28 02:18:50;;;;;;;;;;;;;;;16.09;47.97;102796.09;6282692;22;19907;-77
2022/03/28 02:21:15;;;;;;;;;;;;;;;16.11;48.07;102793.50;6282902;22;19911;-77
2022/03/28 02:23:40;;;;;;;;;;;;;;;16.12;48.11;102790.97;6281959;22;19918;-77
2022/03/28 02:26:06;;;;;;;;;;;;;;;16.14;48.12;102791.03;6255030;22;19907;-77
2022/03/28 02:28:33;;;;;;;;;;;;;;;16.11;48.12;102796.97;6281813;22;20662;-77
2022/03/28 02:30:59;;;;;;;;;;;;;;;16.11;47.95;102786.59;6256510;22;20240;-77
2022/03/28 02:33:24;;;;;;;;;;;;;;;16.14;47.87;102775.44;6281719;22;19977;-77
2022/03/28 02:35:49;;;;;;;;;;;;;;;16.13;48.10;102773.66;6281950;22;19916;-77
2022/03/28 02:38:15;;;;;;;;;;;;;;;16.09;47.99;102777.91;6282790;22;19911;-77
2022/03/28 02:40:40;;;;;;;;;;;;;;;16.10;48.12;102768.38;6282612;22;20224;-77
2022/03/28 02:43:05;;;;;;;;;;;;;;;16.17;48.09;102765.97;6282860;22;19914;-77
2022/03/28 02:45:32;;;;;;;;;;;;;;;16.18;48.05;102761.69;6283243;22;20423;-77
2022/03/28 02:48:01;;;;;;;;;;;;;;;16.17;48.08;102758.19;6258022;22;19911;-77
2022/03/28 02:50:28;;;;;;;;;;;;;;;16.17;48.20;102754.72;6283887;22;19930;-77
2022/03/28 02:52:53;;;;;;;;;;;;;;;16.12;48.16;102746.81;6256818;22;20270;-77
2022/03/28 02:55:18;;;;;;;;;;;;;;;16.11;48.25;102746.75;6281915;22;19911;-77
2022/03/28 02:57:43;;;;;;;;;;;;;;;16.15;47.96;102751.19;6281004;22;19911;-77
2022/03/28 03:00:10;;;;;;;;;;;;;;;16.11;48.10;102750.22;6285259;22;19911;-77
2022/03/28 03:02:36;;;;;;;;;;;;;;;16.16;47.97;102748.66;6269844;22;19933;-77
2022/03/28 03:05:02;;;;;;;;;;;;;;;16.09;47.95;102749.34;6255953;22;19907;-77
2022/03/28 03:07:27;;;;;;;;;;;;;;;16.10;48.17;102751.09;6283293;22;19968;-77
2022/03/28 03:09:52;;;;;;;;;;;;;;;16.13;48.01;102739.91;6282971;22;19916;-77
2022/03/28 03:12:18;;;;;;;;;;;;;;;16.08;48.24;102734.56;6283135;22;19926;-77
2022/03/28 03:14:43;;;;;;;;;;;;;;;16.12;48.18;102732.97;6284352;22;19915;-77
2022/03/28 03:17:08;;;;;;;;;;;;;;;16.08;48.30;102733.72;6283222;22;19912;-76
2022/03/28 03:19:34;;;;;;;;;;;;;;;16.11;48.06;102725.97;6283718;22;19957;-77
2022/03/28 03:21:59;;;;;;;;;;;;;;;16.11;48.13;102723.38;6284222;22;19911;-77
2022/03/28 03:24:24;;;;;;;;;;;;;;;16.08;48.30;102719.00;6284703;22;19956;-76
2022/03/28 03:26:50;;;;;;;;;;;;;;;16.09;48.25;102720.78;6284229;22;19911;-77
2022/03/28 03:29:15;;;;;;;;;;;;;;;16.08;48.32;102715.53;6283767;22;20328;-77
2022/03/28 03:31:40;;;;;;;;;;;;;;;16.08;48.30;102721.59;6283199;22;19984;-76
2022/03/28 03:34:06;;;;;;;;;;;;;;;16.06;48.41;102710.28;6284439;22;19913;-77
2022/03/28 03:36:32;;;;;;;;;;;;;;;16.10;48.42;102708.66;6283434;22;20325;-77
2022/03/28 03:38:57;;;;;;;;;;;;;;;16.09;48.22;102720.78;6283792;22;19914;-77
2022/03/28 03:41:22;;;;;;;;;;;;;;;16.09;48.42;102719.88;6283466;22;20334;-77
2022/03/28 03:43:48;;;;;;;;;;;;;;;16.06;48.49;102719.78;6282126;22;19918;-77
2022/03/28 03:46:13;;;;;;;;;;;;;;;16.06;48.52;102712.00;6281980;22;19907;-77
2022/03/28 03:48:39;;;;;;;;;;;;;;;16.07;48.76;102717.25;6284489;22;19915;-77
2022/03/28 03:51:04;;;;;;;;;;;;;;;16.11;48.60;102710.41;6283788;22;20224;-76
2022/03/28 03:53:29;;;;;;;;;;;;;;;16.10;48.53;102706.94;6281572;22;19911;-77
2022/03/28 03:55:54;;;;;;;;;;;;;;;16.07;48.70;102708.56;6281589;22;19950;-78
2022/03/28 03:58:20;;;;;;;;;;;;;;;16.15;48.32;102704.44;6283612;22;19908;-76
2022/03/28 04:00:45;;;;;;;;;;;;;;;16.12;48.27;102713.03;6281474;22;19943;-77
2022/03/28 04:03:10;;;;;;;;;;;;;;;16.07;48.48;102709.47;6282931;22;19912;-77
2022/03/28 04:05:37;;;;;;;;;;;;;;;16.04;48.29;102704.16;6283112;22;19943;-77
2022/03/28 04:08:04;;;;;;;;;;;;;;;16.05;48.54;102708.53;6283179;22;19994;-76
2022/03/28 04:10:30;;;;;;;;;;;;;;;16.06;48.39;102706.81;6255952;22;20320;-76
2022/03/28 04:12:55;;;;;;;;;;;;;;;16.06;48.52;102699.91;6281045;22;19911;-76
2022/03/28 04:15:21;;;;;;;;;;;;;;;16.11;48.18;102695.69;6281578;22;20040;-76
2022/03/28 04:17:46;;;;;;;;;;;;;;;16.09;48.39;102686.09;6280610;22;19907;-76
2022/03/28 04:20:13;;;;;;;;;;;;;;;16.10;48.07;102680.97;6281056;22;20285;-77
2022/03/28 04:22:39;;;;;;;;;;;;;;;16.10;47.96;102683.56;6254998;22;19953;-77
2022/03/28 04:25:04;;;;;;;;;;;;;;;16.06;48.09;102683.44;6281070;22;19921;-77
2022/03/28 04:27:30;;;;;;;;;;;;;;;16.04;47.95;102681.66;6256319;22;19915;-77
2022/03/28 04:29:55;;;;;;;;;;;;;;;16.07;48.04;102686.09;6282007;22;19908;-77
2022/03/28 04:32:21;;;;;;;;;;;;;;;16.05;48.08;102679.97;6282445;22;19986;-77
2022/03/28 04:34:46;;;;;;;;;;;;;;;16.07;48.20;102678.28;6282686;22;19907;-77
2022/03/28 04:37:11;;;;;;;;;;;;;;;16.07;47.90;102667.00;6281748;22;20339;-76
2022/03/28 04:39:36;;;;;;;;;;;;;;;16.08;47.97;102669.66;6280244;22;20394;-75
2022/03/28 04:42:01;;;;;;;;;;;;;;;16.06;48.06;102673.91;6279847;22;20243;-75
2022/03/28 04:44:27;;;;;;;;;;;;;;;16.05;48.16;102674.78;6280308;22;19911;-76
2022/03/28 04:46:52;;;;;;;;;;;;;;;16.06;48.06;102681.72;6280392;22;20239;-78
2022/03/28 04:49:17;;;;;;;;;;;;;;;16.04;48.14;102667.81;6279862;22;20041;-78
2022/03/28 04:51:43;;;;;;;;;;;;;;;16.03;48.08;102666.06;6280216;22;20247;-78
2022/03/28 04:54:08;;;;;;;;;;;;;;;16.04;48.23;102668.69;6280812;22;19908;-78
2022/03/28 04:56:34;;;;;;;;;;;;;;;16.01;48.13;102666.00;6280125;22;19950;-76
2022/03/28 04:59:00;;;;;;;;;;;;;;;16.05;47.98;102659.19;6257521;22;19955;-79
2022/03/28 05:01:25;;;;;;;;;;;;;;;16.06;47.85;102671.31;6284632;22;19919;-75
2022/03/28 05:03:51;;;;;;;;;;;;;;;16.05;47.97;102661.78;6252946;22;19911;-75
2022/03/28 05:06:16;;;;;;;;;;;;;;;16.18;48.39;102669.06;6281014;22;20332;-76
2022/03/28 05:08:41;;;;;;;;;;;;;;;16.36;48.73;102675.56;6280757;22;20378;-75
2022/03/28 05:11:06;;;;;;;;;;;;;;;16.56;48.53;102666.50;6278143;22;19912;-75
2022/03/28 05:13:32;;;;;;;;;;;;;;;16.63;48.52;102668.41;6278685;22;19911;-76
2022/03/28 05:15:57;;;;;;;;;;;;;;;16.78;48.43;102661.81;6284533;22;19918;-76
2022/03/28 05:18:23;;;;;;;;;;;;;;;16.72;48.06;102667.75;6284123;22;19915;-77
2022/03/28 05:20:48;;;;;;;;;;;;;;;16.69;48.01;102664.22;6283949;22;19907;-75
2022/03/28 05:23:17;;;;;;;;;;;;;;;16.76;48.59;102663.50;6286621;22;19984;-81
2022/03/28 05:25:43;;;;;;;;;;;;;;;16.91;48.14;102665.59;6272332;22;19917;-81
2022/03/28 05:28:09;;;;;;;;;;;;;;;16.97;47.95;102656.22;6267264;23;19935;-81
2022/03/28 05:33:42;;;;;;;;;;;;;;;17.08;47.79;102652.97;6268359;23;19914;-81
2022/03/28 05:36:09;;;;;;;;;;;;;;;17.11;47.67;102642.63;6245723;23;19915;-82
2022/03/28 05:38:54;;;;;;;;;;;;;;;17.12;48.03;102645.28;6232631;23;20256;-79
2022/03/28 05:41:20;;;;;;;;;;;;;;;17.15;47.92;102647.06;6253474;23;19908;-80
2022/03/28 05:43:50;;;;;;;;;;;;;;;17.19;47.54;102647.16;6228173;23;19914;-80
2022/03/28 05:46:18;;;;;;;;;;;;;;;17.18;47.57;102636.69;6226841;23;20004;-80
2022/03/28 05:48:43;;;;;;;;;;;;;;;17.16;47.53;102631.50;6228145;23;19975;-80
2022/03/28 05:51:08;;;;;;;;;;;;;;;17.18;47.68;102634.09;6228030;23;19915;-80
2022/03/28 05:53:34;;;;;;;;;;;;;;;17.16;47.50;102628.88;6201388;23;19915;-79
2022/03/28 05:55:59;;;;;;;;;;;;;;;17.14;47.42;102632.31;6228329;23;19962;-80
2022/03/28 05:58:24;;;;;;;;;;;;;;;17.08;47.41;102624.38;6263388;22;19990;-80
2022/03/28 06:00:51;;;;;;;;;;;;;;;17.02;47.25;102617.31;6287428;22;19915;-80
2022/03/28 06:03:17;;;;;;;;;;;;;;;16.99;47.39;102615.53;6260685;22;19953;-80
2022/03/28 06:05:42;;;;;;;;;;;;;;;16.97;47.29;102608.53;6288594;22;19918;-80
2022/03/28 06:08:08;;;;;;;;;;;;;;;16.95;47.43;102605.88;6289447;22;19942;-80
2022/03/28 06:10:33;;;;;;;;;;;;;;;16.98;47.31;102602.47;6290032;22;20328;-80
2022/03/28 06:13:23;;;;;;;;;;;;;;;16.95;47.08;102605.88;6296255;22;19907;-81
2022/03/28 06:19:11;;;;;;;;;;;;;;;16.91;47.30;102604.06;6304169;22;19914;-83
2022/03/28 06:21:56;;;;;;;;;;;;;;;16.94;47.15;102604.16;6303857;22;19929;-81
2022/03/28 06:24:48;;;;;;;;;;;;;;;16.97;47.06;102611.13;6296092;22;19907;-81
2022/03/28 06:27:14;;;;;;;;;;;;;;;16.95;46.94;102605.88;6296995;22;19908;-81
2022/03/28 06:32:52;;;;;;;;;;;;;;;16.96;47.16;102612.88;6298127;22;19914;-81
2022/03/28 06:38:07;;;;;;;;;;;;;;;17.00;47.01;102616.38;6205039;23;19915;-79
2022/03/28 06:43:56;;;;;;;;;;;;;;;17.01;46.90;102618.16;6212941;23;19924;-81
2022/03/28 06:46:21;;;;;;;;;;;;;;;17.02;46.98;102617.31;6199244;23;19916;-80
2022/03/28 06:48:49;;;;;;;;;;;;;;;17.03;47.02;102614.75;6198275;23;19916;-80
2022/03/28 06:51:15;;;;;;;;;;;;;;;17.03;46.84;102612.13;6194650;23;19908;-80
2022/03/28 06:53:42;;;;;;;;;;;;;;;17.02;46.90;102615.56;6169724;23;19908;-80
2022/03/28 06:56:10;;;;;;;;;;;;;;;17.05;46.91;102606.97;6198856;23;20448;-80
2022/03/28 06:58:35;;;;;;;;;;;;;;;17.06;46.79;102608.72;6197324;23;19976;-81
2022/03/28 07:01:07;;;;;;;;;;;;;;;17.06;46.69;102609.59;6196405;23;19941;-81
2022/03/28 07:03:33;;;;;;;;;;;;;;;17.07;46.78;102613.06;6200202;23;19908;-81
2022/03/28 07:06:01;;;;;;;;;;;;;;;17.06;46.58;102611.31;6220026;22;19919;-81
2022/03/28 07:08:51;;;;;;;;;;;;;;;17.05;46.67;102615.66;6303917;22;19912;-82
2022/03/28 07:11:22;;;;;;;;;;;;;;;17.08;46.70;102613.97;6294090;22;19911;-82
2022/03/28 07:13:52;;;;;;;;;;;;;;;17.05;46.42;102612.19;6290728;22;19907;-80
2022/03/28 07:16:17;;;;;;;;;;;;;;;17.07;46.47;102610.47;6289484;22;19912;-79
2022/03/28 07:18:43;;;;;;;;;;;;;;;17.04;46.49;102608.69;6292231;22;20244;-80
2022/03/28 07:21:09;;;;;;;;;;;;;;;17.05;46.41;102606.97;6290756;22;19930;-80
2022/03/28 07:23:34;;;;;;;;;;;;;;;17.00;46.25;102604.25;6300855;22;19915;-82
2022/03/28 07:29:04;;;;;;;;;;;;;;;16.95;46.39;102602.41;6293972;22;19960;-80
2022/03/28 07:31:30;;;;;;;;;;;;;;;16.98;46.35;102599.88;6296541;22;19907;-81
2022/03/28 07:36:47;;;;;;;;;;;;;;;17.03;46.24;102588.72;6288688;22;19915;-80
2022/03/28 07:39:13;;;;;;;;;;;;;;;17.04;46.30;102594.81;6267438;22;20337;-81
2022/03/28 07:41:39;;;;;;;;;;;;;;;17.01;46.25;102593.03;6293877;22;19907;-81
2022/03/28 07:44:06;;;;;;;;;;;;;;;17.04;46.33;102589.59;6292934;22;19914;-81
2022/03/28 07:46:33;;;;;;;;;;;;;;;17.02;46.23;102596.50;6290012;22;19979;-80
2022/03/28 07:48:58;;;;;;;;;;;;;;;17.03;46.23;102587.88;6264015;22;19915;-80
2022/03/28 07:51:26;;;;;;;;;;;;;;;17.00;46.20;102580.84;6289314;22;19939;-80
2022/03/28 07:53:54;;;;;;;;;;;;;;;17.02;46.25;102584.34;6292003;22;19947;-81
2022/03/28 07:56:19;;;;;;;;;;;;;;;17.01;46.34;102585.22;6289341;22;19907;-80
2022/03/28 07:58:45;;;;;;;;;;;;;;;17.04;46.25;102579.19;6261297;22;19911;-80
2022/03/28 08:01:11;;;;;;;;;;;;;;;17.08;46.23;102586.22;6286133;22;19907;-80
2022/03/28 08:03:36;;;;;;;;;;;;;;;17.06;46.36;102599.19;6262222;22;19939;-80
2022/03/28 08:06:02;;;;;;;;;;;;;;;17.07;46.13;102589.66;6287950;22;19927;-80
2022/03/28 08:08:28;;;;;;;;;;;;;;;17.08;46.26;102586.22;6287911;22;20363;-81
2022/03/28 08:10:55;;;;;;;;;;;;;;;17.04;46.13;102593.06;6282747;22;19907;-80
2022/03/28 08:13:20;;;;;;;;;;;;;;;17.03;46.15;102590.47;6288282;22;20339;-80
2022/03/28 08:15:46;;;;;;;;;;;;;;;17.07;46.08;102594.84;6285163;22;19907;-81
2022/03/28 08:18:11;;;;;;;;;;;;;;;17.10;46.17;102581.94;6287563;22;19985;-81
2022/03/28 08:20:37;;;;;;;;;;;;;;;17.13;45.99;102589.78;6284226;22;19978;-81
2022/03/28 08:23:02;;;;;;;;;;;;;;;17.15;46.19;102597.63;6258696;22;19958;-81
2022/03/28 08:25:30;;;;;;;;;;;;;;;17.15;46.04;102589.81;6284962;22;19913;-80
2022/03/28 08:27:56;;;;;;;;;;;;;;;17.13;45.93;102586.31;6284471;22;19918;-80
2022/03/28 08:30:21;;;;;;;;;;;;;;;17.12;45.98;102590.66;6283282;22;19907;-80
2022/03/28 08:32:47;;;;;;;;;;;;;;;17.13;46.01;102581.09;6287586;22;20319;-79
2022/03/28 08:38:16;;;;;;;;;;;;;;;17.17;46.13;102583.81;6282148;22;19914;-80
2022/03/28 08:40:42;;;;;;;;;;;;;;;17.18;46.08;102579.47;6282214;22;20047;-80
2022/03/28 08:43:08;;;;;;;;;;;;;;;17.20;46.21;102568.28;6253628;22;19907;-80
2022/03/28 08:45:35;;;;;;;;;;;;;;;17.22;46.21;102566.56;6255279;22;19934;-80
2022/03/28 08:48:02;;;;;;;;;;;;;;;17.26;46.02;102572.69;6253945;22;19920;-80
2022/03/28 08:50:27;;;;;;;;;;;;;;;17.27;46.05;102562.31;6253374;22;19908;-80
2022/03/28 08:52:52;;;;;;;;;;;;;;;17.25;46.14;102561.41;6279525;22;20339;-80
2022/03/28 08:55:19;;;;;;;;;;;;;;;17.28;45.71;102558.00;6280271;22;19911;-80
2022/03/28 08:57:44;;;;;;;;;;;;;;;17.26;46.04;102570.09;6254744;22;19911;-80
2022/03/28 09:00:10;;;;;;;;;;;;;;;17.23;45.92;102567.44;6254683;22;20013;-81
2022/03/28 09:02:43;;;;;;;;;;;;;;;17.25;45.94;102570.97;6282494;22;19990;-80
2022/03/28 09:05:12;;;;;;;;;;;;;;;17.25;45.86;102557.94;6255166;22;20308;-80
2022/03/28 09:07:37;;;;;;;;;;;;;;;17.24;45.65;102558.78;6255434;22;19922;-80
2022/03/28 09:10:05;;;;;;;;;;;;;;;17.25;45.79;102564.03;6281440;22;19919;-80
2022/03/28 09:12:31;;;;;;;;;;;;;;;17.28;45.98;102556.25;6254505;22;19908;-80
2022/03/28 09:14:57;;;;;;;;;;;;;;;17.28;45.68;102552.78;6281506;22;19912;-80
2022/03/28 09:17:23;;;;;;;;;;;;;;;17.27;45.64;102559.72;6283947;22;19927;-80
2022/03/28 09:19:48;;;;;;;;;;;;;;;17.30;46.01;102551.09;6283767;22;19957;-80
2022/03/28 09:22:20;;;;;;;;;;;;;;;17.33;45.90;102551.13;6285854;22;19956;-80
2022/03/28 09:24:46;;;;;;;;;;;;;;;17.35;45.78;102559.84;6257324;22;19985;-80
2022/03/28 09:27:13;;;;;;;;;;;;;;;17.36;45.55;102556.41;6269864;22;19898;-81
2022/03/28 09:30:01;;;;;;;;;;;;;;;17.34;45.64;102552.91;6295337;22;20390;-81
2022/03/28 09:32:41;;;;;;;;;;;;;;;17.36;45.74;102539.94;6288059;22;19912;-80
2022/03/28 09:35:09;;;;;;;;;;;;;;;17.38;45.87;102540.84;6262709;22;19907;-82
2022/03/28 09:37:50;;;;;;;;;;;;;;;17.43;45.69;102531.38;6287111;22;19908;-80
2022/03/28 09:40:34;;;;;;;;;;;;;;;17.51;45.96;102532.41;6298101;22;19936;-81
2022/03/28 09:43:19;;;;;;;;;;;;;;;17.55;45.56;102530.72;6301117;22;19907;-81
2022/03/28 09:45:55;;;;;;;;;;;;;;;17.53;45.56;102519.41;6294757;22;19907;-80
2022/03/28 10:07:30;;;;;;;;;;;;;;;17.74;45.43;102504.13;6279875;22;19919;-82
2022/03/28 10:16:24;;;;;;;;;;;;;;;17.75;45.91;102507.66;6153718;23;19924;-82
2022/03/28 10:25:06;;;;;;;;;;;;;;;17.76;45.82;102505.03;6367886;22;19906;-83
2022/03/28 10:41:13;;;;;;;;;;;;;;;17.64;46.03;102484.91;6303527;22;19923;-79
2022/03/28 10:43:48;;;;;;;;;;;;;;;17.62;46.11;102481.41;6300541;22;19941;-81
2022/03/28 10:52:45;;;;;;;;;;;;;;;17.59;46.30;102464.84;6337102;22;19947;-82
2022/03/28 10:55:48;;;;;;;;;;;;;;;17.62;46.42;102465.78;6313261;22;19944;-81
2022/03/28 10:58:44;;;;;;;;;;;;;;;17.64;46.29;102465.81;6255363;22;19918;-81
2022/03/28 11:01:34;;;;;;;;;;;;;;;17.61;46.25;102458.81;6239221;23;19976;-81
2022/03/28 11:07:34;;;;;;;;;;;;;;;17.59;46.30;102452.69;6182153;23;19947;-83
2022/03/28 11:10:38;;;;;;;;;;;;;;;17.61;46.42;102450.13;6141548;23;19909;-81
2022/03/28 11:13:24;;;;;;;;;;;;;;;17.62;46.33;102455.38;6212697;23;19908;-81
2022/03/28 11:25:13;;;;;;;;;;;;;;;17.77;46.28;102439.09;6204960;23;20368;-82
2022/03/28 11:28:03;;;;;;;;;;;;;;;17.75;46.18;102443.41;6199558;23;19912;-82
2022/03/28 11:30:30;;;;;;;;;;;;;;;17.76;46.20;102432.13;6191254;23;19974;-82
2022/03/28 11:32:56;;;;;;;;;;;;;;;17.73;46.13;102426.91;6171098;23;19952;-82
2022/03/28 11:35:22;;;;;;;;;;;;;;;17.76;46.23;102426.94;6194335;23;19912;-82
2022/03/28 11:37:49;;;;;;;;;;;;;;;17.76;46.30;102426.94;6170187;23;19908;-82
2022/03/28 11:40:21;;;;;;;;;;;;;;;17.75;46.18;102422.59;6172277;23;19916;-82
2022/03/28 11:42:56;;;;;;;;;;;;;;;17.76;46.19;102420.84;6197207;23;19908;-82
2022/03/28 11:45:21;;;;;;;;;;;;;;;17.77;46.07;102413.06;6198538;23;19915;-82
2022/03/28 11:47:58;;;;;;;;;;;;;;;17.76;46.20;102408.69;6193566;23;19918;-82
2022/03/28 11:50:27;;;;;;;;;;;;;;;17.78;46.13;102406.13;6187070;23;19983;-82
2022/03/28 11:53:17;;;;;;;;;;;;;;;17.79;45.83;102403.56;6197510;23;19912;-82
2022/03/28 11:55:46;;;;;;;;;;;;;;;17.78;46.00;102393.97;6190224;23;19912;-82
2022/03/28 11:58:19;;;;;;;;;;;;;;;17.82;46.37;102398.41;6173112;23;19916;-80
2022/03/28 12:00:45;;;;;;;;;;;;;;;17.84;45.90;102399.31;6202690;23;20728;-80
2022/03/28 12:03:13;;;;;;;;;;;;;;;17.81;46.00;102386.22;6260350;22;19986;-81
2022/03/28 12:09:01;;;;;;;;;;;;;;;17.76;45.67;102374.84;6304824;22;19941;-81
2022/03/28 12:24:25;;;;;;;;;;;;;;;17.81;45.94;102365.41;6305162;22;19901;-82
2022/03/28 12:59:42;;;;;;;;;;;;;;;17.86;45.58;102300.38;6314337;22;19906;-80
2022/03/28 13:22:20;;;;;;;;;;;;;;;18.11;45.19;102272.00;6301792;22;19919;-82
2022/03/28 13:33:20;;;;;;;;;;;;;;;18.04;45.53;102256.31;6267049;22;19899;-82
2022/03/28 13:36:05;;;;;;;;;;;;;;;18.03;45.48;102256.28;6336146;22;19915;-82
2022/03/28 14:29:57;;;;;;;;;;;;;;;18.08;45.26;102187.75;6334781;22;19914;-81
2022/03/28 14:37:37;;;;;;;;;;;;;;;18.07;45.15;102167.78;6305177;22;19925;-81
2022/03/28 14:40:07;;;;;;;;;;;;;;;18.07;45.29;102177.31;6282589;22;19937;-81
2022/03/28 14:42:35;;;;;;;;;;;;;;;18.09;45.44;102175.59;6209960;23;20361;-81
2022/03/28 14:45:25;;;;;;;;;;;;;;;18.12;45.21;102177.34;6208630;23;19943;-81
2022/03/28 14:47:51;;;;;;;;;;;;;;;18.14;45.13;102171.31;6231498;23;19923;-81
2022/03/28 14:50:26;;;;;;;;;;;;;;;18.18;45.41;102170.50;6228712;23;19912;-81
2022/03/28 14:52:55;;;;;;;;;;;;;;;18.18;45.14;102173.09;6211439;23;19931;-82
2022/03/28 14:55:25;;;;;;;;;;;;;;;18.17;45.25;102173.94;6211473;23;19915;-81
2022/03/28 14:58:12;;;;;;;;;;;;;;;18.17;45.06;102162.66;6241099;23;19908;-81
2022/03/28 15:01:03;;;;;;;;;;;;;;;18.15;45.13;102157.44;6240526;23;19931;-81
2022/03/28 15:03:36;;;;;;;;;;;;;;;18.15;45.17;102152.22;6156243;23;19908;-81
2022/03/28 15:06:02;;;;;;;;;;;;;;;18.15;45.11;102149.59;6232553;23;19908;-81
2022/03/28 15:08:28;;;;;;;;;;;;;;;18.15;45.24;102148.75;6201689;23;19911;-81
2022/03/28 15:10:54;;;;;;;;;;;;;;;18.14;45.24;102134.84;6229358;23;19915;-81
2022/03/28 15:13:20;;;;;;;;;;;;;;;18.15;45.29;102138.31;6207875;23;20272;-81
2022/03/28 15:15:45;;;;;;;;;;;;;;;18.16;45.13;102138.34;6208050;23;19960;-81
2022/03/28 15:18:12;;;;;;;;;;;;;;;18.15;45.33;102133.13;6234477;23;19909;-81
2022/03/28 15:21:03;;;;;;;;;;;;;;;18.14;45.10;102131.34;6195651;23;19919;-81
2022/03/28 15:23:35;;;;;;;;;;;;;;;18.13;45.05;102127.88;6207650;23;19908;-81
2022/03/28 15:26:05;;;;;;;;;;;;;;;18.13;45.05;102130.47;6207193;23;19932;-81
2022/03/28 15:28:33;;;;;;;;;;;;;;;18.13;45.09;102124.41;6231850;23;19912;-80
2022/03/28 15:31:17;;;;;;;;;;;;;;;18.13;44.98;102132.22;6204148;23;19908;-81
2022/03/28 15:33:44;;;;;;;;;;;;;;;18.12;45.10;102128.75;6286979;22;19914;-81
2022/03/28 15:36:10;;;;;;;;;;;;;;;18.10;45.03;102127.88;6296717;22;19907;-81
2022/03/28 15:38:36;;;;;;;;;;;;;;;18.08;44.92;102126.97;6270032;22;19934;-81
2022/03/28 15:41:09;;;;;;;;;;;;;;;18.08;45.06;102126.97;6299348;22;19989;-81
2022/03/28 15:43:42;;;;;;;;;;;;;;;18.06;44.90;102123.47;6296334;22;19907;-81
2022/03/28 15:46:08;;;;;;;;;;;;;;;18.04;44.93;102120.84;6297666;22;19914;-81
2022/03/28 15:48:36;;;;;;;;;;;;;;;18.03;44.86;102123.44;6298209;22;19933;-81
2022/03/28 15:51:06;;;;;;;;;;;;;;;18.02;44.88;102121.72;6303581;22;19908;-82
2022/03/28 15:53:36;;;;;;;;;;;;;;;18.01;44.86;102125.19;6302959;22;19908;-81
2022/03/28 15:56:04;;;;;;;;;;;;;;;18.00;44.87;102118.22;6233828;22;19895;-82
2022/03/28 15:58:29;;;;;;;;;;;;;;;17.98;44.87;102119.94;6278040;22;19916;-80
2022/03/28 16:00:55;;;;;;;;;;;;;;;17.99;44.93;102122.56;6303759;22;19907;-81
2022/03/28 16:04:02;;;;;;;;;;;;;;;18.04;45.22;102126.06;6295579;22;19907;-82
2022/03/28 16:06:29;;;;;;;;;;;;;;;18.13;45.22;102125.28;6179324;23;19917;-81
2022/03/28 16:08:54;;;;;;;;;;;;;;;18.17;45.23;102124.44;6195472;23;19919;-80
2022/03/28 16:11:21;;;;;;;;;;;;;;;18.16;45.05;102129.63;6194357;23;19908;-80
2022/03/28 16:13:58;;;;;;;;;;;;;;;18.16;45.29;102112.28;6170311;23;19915;-81
2022/03/28 16:16:42;;;;;;;;;;;;;;;18.14;45.47;102111.41;6153748;23;19900;-81
2022/03/28 16:19:07;;;;;;;;;;;;;;;18.14;45.52;102110.50;6198964;23;19912;-81
2022/03/28 16:21:53;;;;;;;;;;;;;;;18.17;45.63;102106.22;6192456;23;19943;-81
2022/03/28 16:24:19;;;;;;;;;;;;;;;18.16;45.53;102120.09;6195129;23;19915;-80